Time;durP1;ratioP1;P1;durP2;ratioP2;P2;SDS_P1;SDS_P2;PMS_P1;PMS_P2;Temp;Humidity;BMP_temperature;BMP_pressure;BME280_temperature;BME280_humidity;BME280_pressure;Samples;Min_cycle;Max_cycle;Signal;HPM_P1;HPM_P2
2022/08/10 00:00:43;;;;;;;4.10;3.25;;;16.60;96.60;;;;;;5007874;28;20206;-63
2022/08/10 00:03:09;;;;;;;3.42;3.13;;;16.50;97.10;;;;;;4995234;28;20217;-63
2022/08/10 00:05:37;;;;;;;4.15;3.10;;;16.50;97.20;;;;;;5010594;28;20672;-63
2022/08/10 00:08:04;;;;;;;3.63;2.72;;;16.50;97.70;;;;;;5011676;28;20205;-63
2022/08/10 00:10:31;;;;;;;3.70;3.28;;;16.50;97.90;;;;;;5009533;28;20232;-62
2022/08/10 00:12:58;;;;;;;5.32;3.10;;;16.50;98.60;;;;;;5009699;28;20391;-63
2022/08/10 00:15:25;;;;;;;3.45;3.13;;;16.50;99.50;;;;;;5012599;28;20205;-62
2022/08/10 00:17:53;;;;;;;3.30;3.00;;;16.50;99.50;;;;;;5009381;28;20245;-63
2022/08/10 00:20:20;;;;;;;4.57;3.72;;;16.60;99.90;;;;;;4992647;28;20209;-63
2022/08/10 00:22:47;;;;;;;6.15;3.78;;;16.70;99.90;;;;;;5005768;28;20202;-63
2022/08/10 00:25:14;;;;;;;5.57;3.58;;;16.50;99.90;;;;;;5004474;28;20208;-63
2022/08/10 00:27:41;;;;;;;4.95;3.63;;;16.60;99.90;;;;;;5008094;28;20202;-63
2022/08/10 00:30:08;;;;;;;4.47;3.70;;;16.50;99.90;;;;;;5012488;28;20218;-62
2022/08/10 00:32:35;;;;;;;4.38;3.67;;;16.40;99.50;;;;;;5007975;28;20661;-62
2022/08/10 00:35:04;;;;;;;4.72;3.28;;;16.30;99.40;;;;;;4994271;28;20213;-63
2022/08/10 00:37:31;;;;;;;5.63;3.03;;;16.20;99.20;;;;;;5010074;28;20759;-63
2022/08/10 00:39:57;;;;;;;3.83;3.40;;;16.20;99.90;;;;;;5010155;28;20315;-63
2022/08/10 00:42:24;;;;;;;5.38;4.85;;;16.10;99.90;;;;;;5010574;28;20199;-63
2022/08/10 00:44:52;;;;;;;3.42;3.00;;;16.10;99.90;;;;;;5009113;28;20415;-63
2022/08/10 00:47:19;;;;;;;3.85;3.03;;;16.00;99.90;;;;;;5012277;28;20270;-62
2022/08/10 00:49:47;;;;;;;4.25;3.72;;;15.90;99.90;;;;;;4989162;28;20206;-63
2022/08/10 00:52:17;;;;;;;3.58;3.17;;;15.80;99.90;;;;;;5012684;28;20453;-62
2022/08/10 00:54:44;;;;;;;4.05;2.80;;;15.80;99.90;;;;;;5001391;28;20206;-63
2022/08/10 00:57:11;;;;;;;3.28;2.97;;;15.60;99.90;;;;;;5012793;28;20194;-63
2022/08/10 00:59:38;;;;;;;4.78;2.92;;;15.60;99.90;;;;;;5011123;28;20204;-62
2022/08/10 01:02:06;;;;;;;4.05;3.20;;;15.60;99.90;;;;;;5011089;28;20198;-62
2022/08/10 01:04:33;;;;;;;3.17;2.72;;;15.60;99.90;;;;;;5000410;28;20197;-63
2022/08/10 01:07:12;;;;;;;7.05;3.35;;;14.30;99.90;;;;;;5006425;28;20228;-62
2022/08/10 01:09:49;;;;;;;3.97;3.42;;;15.30;99.90;;;;;;5007822;28;20190;-63
2022/08/10 01:12:28;;;;;;;5.35;3.85;;;15.60;99.90;;;;;;5013264;28;20201;-63
2022/08/10 01:15:01;;;;;;;3.85;3.42;;;15.60;99.90;;;;;;5012469;28;20307;-63
2022/08/10 01:17:34;;;;;;;5.10;3.40;;;15.60;99.90;;;;;;5017136;28;20257;-62
2022/08/10 01:20:06;;;;;;;6.63;3.35;;;15.60;99.90;;;;;;5009621;28;20206;-63
2022/08/10 01:22:47;;;;;;;3.72;3.38;;;15.50;99.90;;;;;;4995712;28;20205;-62
2022/08/10 01:25:36;;;;;;;3.13;2.83;;;15.50;99.90;;;;;;5006017;28;20214;-63
2022/08/10 01:28:19;;;;;;;4.15;3.20;;;15.50;99.90;;;;;;5011743;28;20214;-63
2022/08/10 01:30:48;;;;;;;3.33;3.00;;;15.50;99.90;;;;;;5009239;28;20832;-62
2022/08/10 01:33:21;;;;;;;3.30;2.97;;;15.40;99.90;;;;;;5019110;28;20533;-62
2022/08/10 01:35:54;;;;;;;3.53;2.83;;;15.60;99.90;;;;;;4992198;28;20779;-63
2022/08/10 01:38:26;;;;;;;3.40;3.10;;;15.20;99.90;;;;;;5014268;28;20213;-63
2022/08/10 01:40:55;;;;;;;2.83;2.53;;;15.20;99.90;;;;;;5012701;28;20226;-63
2022/08/10 01:43:24;;;;;;;3.00;2.60;;;15.20;99.90;;;;;;5016214;28;20201;-63
2022/08/10 01:45:56;;;;;;;8.30;2.53;;;14.80;99.90;;;;;;5013127;28;20214;-62
2022/08/10 01:48:30;;;;;;;2.42;2.00;;;15.10;99.90;;;;;;5013040;28;20567;-62
2022/08/10 01:51:04;;;;;;;6.93;2.50;;;15.00;99.90;;;;;;4989661;28;20451;-63
2022/08/10 01:53:37;;;;;;;4.43;2.70;;;15.00;99.90;;;;;;5010772;28;20195;-62
2022/08/10 01:56:05;;;;;;;3.58;2.10;;;15.30;99.90;;;;;;5007247;28;20198;-63
2022/08/10 01:58:35;;;;;;;3.60;2.35;;;15.00;99.90;;;;;;5011962;28;20198;-63
2022/08/10 02:01:07;;;;;;;4.22;2.40;;;14.90;99.90;;;;;;5014599;28;21020;-60
2022/08/10 02:03:36;;;;;;;3.42;2.50;;;15.00;99.90;;;;;;5012827;28;20694;-60
2022/08/10 02:06:07;;;;;;;3.47;2.40;;;15.00;99.90;;;;;;5015901;28;20646;-60
2022/08/10 02:08:35;;;;;;;3.85;2.65;;;15.00;99.90;;;;;;4993027;28;20217;-60
2022/08/10 02:11:03;;;;;;;2.70;2.42;;;15.10;99.90;;;;;;5004821;28;20231;-62
2022/08/10 02:13:31;;;;;;;3.75;3.45;;;15.10;99.90;;;;;;5013240;28;20194;-62
2022/08/10 02:16:00;;;;;;;3.35;2.70;;;15.10;99.90;;;;;;5011148;28;20304;-62
2022/08/10 02:18:30;;;;;;;3.00;2.42;;;15.10;99.90;;;;;;5011767;28;20233;-62
2022/08/10 02:20:59;;;;;;;3.05;2.63;;;16.40;99.90;;;;;;5013453;28;20233;-63
2022/08/10 02:23:28;;;;;;;4.32;2.80;;;15.10;99.90;;;;;;4996680;28;20202;-63
2022/08/10 02:25:58;;;;;;;4.70;3.20;;;15.20;99.90;;;;;;5002709;28;20571;-63
2022/08/10 02:28:27;;;;;;;4.25;3.20;;;15.20;99.90;;;;;;5014939;28;20202;-62
2022/08/10 02:30:56;;;;;;;6.32;3.25;;;15.20;99.90;;;;;;5012256;28;20579;-63
2022/08/10 02:33:26;;;;;;;6.20;3.17;;;15.30;99.90;;;;;;5014279;28;20684;-63
2022/08/10 02:35:55;;;;;;;3.28;2.97;;;15.30;99.90;;;;;;5012386;28;20229;-63
2022/08/10 02:38:31;;;;;;;4.00;3.40;;;15.30;99.90;;;;;;4994359;28;20206;-62
2022/08/10 02:41:08;;;;;;;18.73;3.80;;;15.70;99.90;;;;;;5012172;28;20864;-63
2022/08/10 02:43:42;;;;;;;4.18;3.50;;;15.20;99.90;;;;;;5011410;28;20671;-62
2022/08/10 02:46:13;;;;;;;3.40;3.10;;;15.30;99.90;;;;;;5013953;28;20706;-63
2022/08/10 02:48:44;;;;;;;4.50;3.15;;;15.20;99.90;;;;;;5008614;28;20249;-62
2022/08/10 02:51:17;;;;;;;3.95;3.30;;;14.70;99.90;;;;;;5008640;28;20229;-63
2022/08/10 02:53:47;;;;;;;5.88;3.90;;;15.30;99.90;;;;;;4987189;28;20373;-63
2022/08/10 02:56:21;;;;;;;5.40;3.10;;;15.00;99.90;;;;;;5014223;28;20195;-62
2022/08/10 02:58:55;;;;;;;6.38;3.25;;;14.90;99.90;;;;;;5007726;28;20593;-63
2022/08/10 03:01:30;;;;;;;3.45;2.88;;;14.80;99.90;;;;;;5014254;28;20992;-62
2022/08/10 03:04:00;;;;;;;3.67;3.25;;;14.80;99.90;;;;;;5010134;28;20672;-62
2022/08/10 03:06:35;;;;;;;3.33;2.92;;;14.80;99.90;;;;;;5008587;28;20217;-63
2022/08/10 03:09:05;;;;;;;11.10;2.88;;;14.80;99.90;;;;;;4990881;28;20209;-63
2022/08/10 03:11:34;;;;;;;3.83;2.88;;;14.80;99.90;;;;;;5011026;28;20659;-62
2022/08/10 03:14:01;;;;;;;2.70;2.50;;;14.80;99.90;;;;;;5009770;28;20615;-62
2022/08/10 03:16:30;;;;;;;4.28;2.65;;;14.70;99.90;;;;;;5013144;28;20204;-62
2022/08/10 03:19:00;;;;;;;2.60;2.40;;;14.80;99.90;;;;;;5010552;28;20471;-62
2022/08/10 03:21:30;;;;;;;2.25;2.05;;;14.60;99.90;;;;;;5011971;28;20198;-62
2022/08/10 03:24:01;;;;;;;5.75;2.40;;;14.60;99.90;;;;;;5008664;28;20607;-62
2022/08/10 03:26:29;;;;;;;2.92;2.47;;;14.60;99.90;;;;;;4991027;28;20312;-63
2022/08/10 03:28:57;;;;;;;2.30;2.10;;;15.00;99.90;;;;;;5011081;28;20587;-63
2022/08/10 03:31:25;;;;;;;2.47;2.28;;;14.80;99.90;;;;;;5014063;28;20598;-63
2022/08/10 03:33:54;;;;;;;1.85;1.60;;;14.80;99.90;;;;;;5011613;28;20434;-62
2022/08/10 03:36:21;;;;;;;2.53;2.13;;;14.70;99.90;;;;;;5013985;28;20198;-62
2022/08/10 03:38:51;;;;;;;2.55;2.25;;;14.50;99.90;;;;;;5008522;28;20601;-63
2022/08/10 03:41:22;;;;;;;5.43;2.58;;;14.60;99.90;;;;;;4994207;28;20206;-63
2022/08/10 03:43:50;;;;;;;2.60;2.30;;;14.70;99.90;;;;;;5003277;28;20422;-62
2022/08/10 03:46:21;;;;;;;2.65;2.20;;;14.60;99.90;;;;;;5013247;28;20758;-63
2022/08/10 03:48:51;;;;;;;5.45;2.70;;;14.60;99.90;;;;;;5008382;28;20410;-63
2022/08/10 03:51:20;;;;;;;2.83;2.47;;;14.70;99.90;;;;;;5007700;28;20222;-63
2022/08/10 03:53:49;;;;;;;2.50;2.30;;;14.60;99.90;;;;;;5009019;28;20304;-63
2022/08/10 03:56:16;;;;;;;6.03;2.83;;;14.80;99.90;;;;;;4995434;28;20256;-62
2022/08/10 03:58:43;;;;;;;6.53;2.55;;;14.60;99.90;;;;;;5008661;28;20303;-62
2022/08/10 04:01:10;;;;;;;2.92;2.47;;;14.60;99.90;;;;;;5010079;28;20698;-63
2022/08/10 04:03:37;;;;;;;3.58;2.33;;;14.60;99.90;;;;;;5009342;28;20210;-63
2022/08/10 04:06:04;;;;;;;4.05;2.03;;;14.60;99.90;;;;;;5015568;28;20199;-63
2022/08/10 04:08:32;;;;;;;4.82;2.13;;;14.50;99.90;;;;;;5011686;28;20209;-62
2022/08/10 04:11:00;;;;;;;2.60;2.40;;;14.50;99.90;;;;;;5012304;28;20442;-63
2022/08/10 04:13:27;;;;;;;2.95;2.60;;;14.50;99.90;;;;;;4992814;28;20202;-63
2022/08/10 04:15:54;;;;;;;1.90;1.77;;;14.50;99.90;;;;;;5009115;28;20296;-62
2022/08/10 04:18:20;;;;;;;6.18;2.33;;;14.50;99.90;;;;;;5012140;28;20229;-62
2022/08/10 04:20:50;;;;;;;1.83;1.60;;;14.30;99.90;;;;;;5005321;28;20312;-63
2022/08/10 04:23:21;;;;;;;1.58;1.48;;;14.30;99.90;;;;;;5011938;28;20209;-62
2022/08/10 04:25:49;;;;;;;3.35;1.67;;;17.60;99.90;;;;;;5009457;28;20409;-63
2022/08/10 04:28:18;;;;;;;2.53;2.10;;;14.30;99.90;;;;;;4989087;28;20206;-63
2022/08/10 04:30:47;;;;;;;2.22;2.03;;;14.30;99.90;;;;;;5007114;28;20742;-62
2022/08/10 04:33:17;;;;;;;2.95;2.35;;;14.40;99.90;;;;;;5012267;28;20194;-62
2022/08/10 04:35:46;;;;;;;3.75;2.83;;;14.40;99.90;;;;;;5008827;28;20569;-63
2022/08/10 04:38:15;;;;;;;3.22;2.92;;;14.50;99.90;;;;;;5012360;28;20200;-63
2022/08/10 04:40:42;;;;;;;5.53;3.47;;;14.70;99.90;;;;;;5007591;28;20249;-62
2022/08/10 04:43:10;;;;;;;5.07;3.65;;;14.80;99.90;;;;;;5013344;28;20241;-63
2022/08/10 04:45:39;;;;;;;12.50;3.38;;;14.80;99.90;;;;;;4987265;28;20218;-63
2022/08/10 04:48:05;;;;;;;4.88;3.33;;;15.70;99.90;;;;;;5010346;28;20199;-63
2022/08/10 04:50:32;;;;;;;3.22;2.92;;;15.00;99.90;;;;;;5007976;28;20694;-63
2022/08/10 04:52:59;;;;;;;3.72;3.33;;;15.00;99.90;;;;;;5013357;28;20236;-63
2022/08/10 04:55:26;;;;;;;5.60;3.30;;;14.90;99.90;;;;;;5016001;28;21082;-63
2022/08/10 04:57:53;;;;;;;4.72;3.40;;;15.00;99.90;;;;;;5008581;28;20318;-62
2022/08/10 05:00:20;;;;;;;7.43;3.45;;;15.00;99.90;;;;;;4997118;28;20206;-62
2022/08/10 05:02:48;;;;;;;4.78;3.58;;;15.10;99.90;;;;;;5014190;28;20375;-63
2022/08/10 05:05:15;;;;;;;4.38;3.30;;;15.20;99.90;;;;;;5018304;28;20210;-63
2022/08/10 05:07:41;;;;;;;5.47;3.28;;;15.20;99.90;;;;;;5010513;28;20198;-63
2022/08/10 05:10:08;;;;;;;5.10;3.30;;;15.20;99.90;;;;;;5017878;28;20198;-63
2022/08/10 05:12:37;;;;;;;9.95;4.00;;;16.10;99.90;;;;;;5004009;28;20237;-63
2022/08/10 05:15:06;;;;;;;5.20;3.58;;;15.30;99.90;;;;;;5017824;28;20199;-63
2022/08/10 05:17:34;;;;;;;3.83;3.08;;;15.40;99.90;;;;;;4993807;28;20226;-63
2022/08/10 05:20:03;;;;;;;5.35;3.08;;;15.50;99.90;;;;;;5016065;28;20193;-63
2022/08/10 05:22:29;;;;;;;4.65;3.25;;;15.40;99.90;;;;;;5012471;28;20198;-63
2022/08/10 05:24:56;;;;;;;5.43;3.63;;;15.50;99.90;;;;;;5011355;28;20225;-63
2022/08/10 05:27:23;;;;;;;3.78;3.13;;;15.50;99.90;;;;;;5008438;28;20596;-63
2022/08/10 05:29:50;;;;;;;7.03;3.65;;;15.60;99.90;;;;;;5012893;28;20237;-63
2022/08/10 05:32:17;;;;;;;3.40;3.10;;;15.60;99.90;;;;;;4996963;28;20218;-63
2022/08/10 05:34:43;;;;;;;6.90;3.70;;;15.60;99.90;;;;;;5007903;28;20771;-63
2022/08/10 05:37:12;;;;;;;3.42;3.13;;;15.70;99.90;;;;;;5017286;28;20536;-63
2022/08/10 05:39:39;;;;;;;5.03;3.33;;;15.70;99.90;;;;;;5013756;28;20190;-63
2022/08/10 05:42:06;;;;;;;4.70;3.83;;;15.80;99.90;;;;;;5014291;28;20195;-63
2022/08/10 05:44:34;;;;;;;4.20;3.38;;;15.80;99.90;;;;;;5005989;28;20194;-63
2022/08/10 05:47:01;;;;;;;6.40;3.17;;;16.10;99.90;;;;;;4996804;28;20248;-63
2022/08/10 05:49:28;;;;;;;4.00;3.20;;;15.90;99.90;;;;;;5012504;28;20601;-63
2022/08/10 05:51:54;;;;;;;4.45;3.13;;;16.00;99.90;;;;;;5009634;28;20520;-63
2022/08/10 05:54:24;;;;;;;3.95;3.40;;;16.10;99.90;;;;;;5015634;28;20198;-63
2022/08/10 05:56:52;;;;;;;7.47;3.47;;;16.10;99.90;;;;;;5007620;28;20202;-63
2022/08/10 05:59:19;;;;;;;4.68;3.15;;;16.10;99.90;;;;;;5006688;28;20197;-63
2022/08/10 06:01:49;;;;;;;3.55;3.05;;;16.20;99.90;;;;;;5009235;28;20613;-63
2022/08/10 06:04:24;;;;;;;4.60;3.25;;;16.30;99.90;;;;;;4996196;28;20210;-63
2022/08/10 06:06:53;;;;;;;4.05;3.08;;;16.30;99.90;;;;;;5013053;28;20690;-63
2022/08/10 06:09:21;;;;;;;4.22;3.45;;;16.40;99.90;;;;;;5012781;28;20194;-63
2022/08/10 06:11:52;;;;;;;5.95;3.30;;;16.50;99.90;;;;;;5011063;28;20431;-63
2022/08/10 06:17:07;;;;;;;3.80;3.42;;;16.60;99.90;;;;;;5014281;28;20241;-63
2022/08/10 06:19:35;;;;;;;3.28;2.97;;;15.90;99.90;;;;;;4991718;28;20202;-62
2022/08/10 06:22:02;;;;;;;3.40;3.10;;;16.80;99.90;;;;;;5018646;28;20186;-63
2022/08/10 06:24:30;;;;;;;5.97;3.35;;;16.80;99.90;;;;;;5013790;28;20373;-63
2022/08/10 06:26:59;;;;;;;3.28;2.95;;;16.80;99.90;;;;;;5014975;28;20517;-63
2022/08/10 06:29:29;;;;;;;4.60;3.17;;;16.90;99.90;;;;;;5013029;28;20576;-63
2022/08/10 06:31:56;;;;;;;5.35;3.60;;;;;;;;;;5013622;28;20466;-63
2022/08/10 06:34:28;;;;;;;4.38;3.20;;;17.10;99.90;;;;;;4997969;28;20211;-63
2022/08/10 06:36:57;;;;;;;4.05;3.15;;;17.20;99.90;;;;;;5014042;28;20498;-63
2022/08/10 06:39:24;;;;;;;4.80;2.92;;;17.20;99.90;;;;;;5016857;28;20647;-63
2022/08/10 06:41:54;;;;;;;3.25;2.83;;;17.30;99.90;;;;;;5013004;28;20202;-63
2022/08/10 06:44:32;;;;;;;4.28;3.05;;;17.30;99.90;;;;;;5013671;28;20213;-63
2022/08/10 06:47:00;;;;;;;6.50;2.80;;;17.30;99.00;;;;;;5014395;28;20746;-63
2022/08/10 06:49:27;;;;;;;3.63;2.22;;;17.40;97.40;;;;;;4991663;28;20658;-63
2022/08/10 06:51:56;;;;;;;3.10;2.60;;;17.40;96.30;;;;;;5008245;28;20217;-63
2022/08/10 06:54:25;;;;;;;3.83;2.60;;;17.50;94.90;;;;;;5009835;28;20286;-63
2022/08/10 06:56:54;;;;;;;2.60;2.40;;;17.50;95.10;;;;;;5006641;28;20512;-63
2022/08/10 06:59:26;;;;;;;4.38;2.55;;;17.80;90.80;;;;;;5013857;28;20194;-63
2022/08/10 07:01:57;;;;;;;3.65;2.35;;;17.70;90.10;;;;;;5012553;28;20510;-61
2022/08/10 07:04:27;;;;;;;3.70;2.75;;;17.80;89.90;;;;;;5006773;28;20190;-60
2022/08/10 07:06:55;;;;;;;3.10;2.63;;;17.80;90.00;;;;;;5002130;28;20206;-61
2022/08/10 07:09:23;;;;;;;3.60;2.55;;;17.90;86.60;;;;;;5015135;28;20481;-60
2022/08/10 07:11:51;;;;;;;3.10;2.72;;;17.90;83.80;;;;;;5003315;28;20673;-61
2022/08/10 07:14:20;;;;;;;3.22;2.33;;;17.90;83.90;;;;;;5014887;28;20187;-61
2022/08/10 07:16:50;;;;;;;3.72;2.22;;;18.00;84.50;;;;;;5008253;28;20643;-60
2022/08/10 07:19:17;;;;;;;2.25;2.05;;;18.10;79.80;;;;;;5015452;28;20244;-60
2022/08/10 07:21:45;;;;;;;2.38;2.15;;;18.10;85.40;;;;;;4987829;28;20766;-60
2022/08/10 07:24:14;;;;;;;2.35;2.15;;;18.20;86.30;;;;;;5012161;28;20190;-61
2022/08/10 07:26:48;;;;;;;2.55;2.15;;;18.30;88.90;;;;;;5005913;28;20206;-61
2022/08/10 07:29:15;;;;;;;3.08;2.28;;;18.30;99.90;;;;;;5013059;28;20598;-61
2022/08/10 07:31:42;;;;;;;4.05;2.35;;;18.50;99.90;;;;;;5010840;28;20411;-60
2022/08/10 07:34:14;;;;;;;2.20;2.00;;;18.50;99.90;;;;;;5010980;28;20247;-61
2022/08/10 07:36:44;;;;;;;6.40;2.03;;;18.60;99.90;;;;;;4990482;28;20644;-61
2022/08/10 07:39:12;;;;;;;3.90;2.20;;;18.60;99.90;;;;;;5012986;28;20194;-61
2022/08/10 07:41:42;;;;;;;2.38;1.98;;;18.60;99.90;;;;;;5008734;28;20246;-60
2022/08/10 07:44:10;;;;;;;2.35;2.10;;;18.90;99.90;;;;;;5015046;28;20490;-61
2022/08/10 07:46:40;;;;;;;5.45;2.03;;;18.80;99.90;;;;;;5012585;28;20229;-60
2022/08/10 07:49:12;;;;;;;6.38;2.00;;;19.00;99.90;;;;;;5013774;28;20205;-60
2022/08/10 07:51:41;;;;;;;2.65;2.03;;;19.10;99.90;;;;;;4987998;28;20216;-61
2022/08/10 07:54:14;;;;;;;2.58;2.10;;;19.00;99.90;;;;;;5012741;28;20737;-62
2022/08/10 07:56:43;;;;;;;4.43;2.00;;;19.00;99.90;;;;;;4998862;28;20466;-62
2022/08/10 07:59:14;;;;;;;4.78;2.10;;;19.30;99.90;;;;;;5010515;28;20202;-61
2022/08/10 08:01:49;;;;;;;5.72;2.28;;;19.20;99.90;;;;;;5009122;28;20318;-62
2022/08/10 08:04:18;;;;;;;6.10;2.15;;;19.20;99.90;;;;;;5011224;28;20251;-62
2022/08/10 08:06:47;;;;;;;7.05;2.22;;;19.40;99.90;;;;;;4990605;28;20393;-62
2022/08/10 08:09:14;;;;;;;4.13;1.92;;;19.40;99.90;;;;;;5014758;28;20194;-62
2022/08/10 08:11:43;;;;;;;4.05;2.13;;;19.40;99.90;;;;;;5000486;28;20742;-62
2022/08/10 08:14:12;;;;;;;3.83;2.17;;;19.60;99.90;;;;;;5012536;28;20234;-62
2022/08/10 08:16:47;;;;;;;2.13;1.92;;;19.50;99.90;;;;;;5010896;28;20189;-63
2022/08/10 08:19:14;;;;;;;2.53;1.88;;;19.60;99.90;;;;;;5013379;28;20198;-63
2022/08/10 08:21:42;;;;;;;4.05;1.98;;;19.60;99.90;;;;;;5009763;28;20189;-62
2022/08/10 08:24:13;;;;;;;3.35;1.77;;;19.70;99.90;;;;;;4992130;28;20202;-63
2022/08/10 08:26:42;;;;;;;1.85;1.75;;;19.90;99.90;;;;;;4999345;28;20202;-63
2022/08/10 08:29:10;;;;;;;5.88;1.85;;;19.70;99.90;;;;;;5013498;28;20191;-63
2022/08/10 08:31:39;;;;;;;5.88;2.08;;;19.80;99.90;;;;;;5010724;28;20209;-64
2022/08/10 08:34:08;;;;;;;2.83;1.90;;;19.90;99.90;;;;;;5009531;28;20225;-64
2022/08/10 08:36:38;;;;;;;7.15;1.95;;;19.90;99.90;;;;;;5011963;28;20201;-64
2022/08/10 08:39:05;;;;;;;4.25;2.05;;;19.90;99.90;;;;;;4993135;28;20675;-64
2022/08/10 08:41:58;;;;;;;2.30;1.90;;;20.00;99.90;;;;;;5009627;28;20194;-63
2022/08/10 08:44:39;;;;;;;4.82;1.80;;;20.10;99.90;;;;;;5010250;28;20218;-63
2022/08/10 08:47:21;;;;;;;5.35;1.65;;;20.10;99.90;;;;;;5013721;28;20235;-63
2022/08/10 08:50:05;;;;;;;3.63;1.63;;;20.20;99.90;;;;;;5006788;28;20198;-63
2022/08/10 08:52:43;;;;;;;1.98;1.80;;;20.20;99.90;;;;;;5011854;28;20245;-63
2022/08/10 08:55:22;;;;;;;7.60;1.80;;;20.50;99.90;;;;;;4997003;28;20214;-63
2022/08/10 08:58:00;;;;;;;2.63;1.90;;;20.30;99.90;;;;;;5008859;28;20221;-64
2022/08/10 09:00:40;;;;;;;3.28;1.75;;;20.40;99.90;;;;;;5011891;28;21223;-63
2022/08/10 09:03:40;;;;;;;4.18;1.90;;;20.40;99.90;;;;;;5012131;28;20205;-63
2022/08/10 09:06:23;;;;;;;3.92;1.85;;;20.60;1.00;;;;;;5010666;28;20198;-63
2022/08/10 09:09:09;;;;;;;4.32;1.83;;;20.60;1.00;;;;;;4984346;28;20613;-63
2022/08/10 09:11:49;;;;;;;1.98;1.77;;;20.80;99.90;;;;;;5007548;28;20656;-64
2022/08/10 09:14:25;;;;;;;3.25;1.85;;;20.90;99.90;;;;;;5012656;28;20251;-63
2022/08/10 09:16:59;;;;;;;3.00;1.83;;;21.20;99.90;;;;;;5002734;28;20213;-63
2022/08/10 09:19:33;;;;;;;1.92;1.67;;;21.20;99.90;;;;;;5009908;28;20198;-63
2022/08/10 09:22:04;;;;;;;6.10;1.65;;;21.10;1.00;;;;;;5010807;28;20193;-64
2022/08/10 09:24:38;;;;;;;2.25;1.85;;;21.20;99.90;;;;;;4991554;28;20206;-64
2022/08/10 09:27:15;;;;;;;2.53;1.67;;;21.30;99.90;;;;;;5012304;28;20197;-63
2022/08/10 09:29:54;;;;;;;3.95;1.60;;;21.20;99.90;;;;;;4998729;28;20194;-64
2022/08/10 09:32:32;;;;;;;3.42;1.90;;;21.20;1.00;;;;;;5011524;28;20941;-64
2022/08/10 09:35:10;;;;;;;2.15;1.60;;;21.30;1.00;;;;;;5011709;28;20256;-63
2022/08/10 09:37:44;;;;;;;4.28;1.60;;;21.40;1.00;;;;;;5013270;28;20326;-63
2022/08/10 09:40:17;;;;;;;2.25;1.42;;;21.70;1.00;;;;;;4995690;28;20297;-63
2022/08/10 09:42:49;;;;;;;4.97;1.95;;;21.60;1.00;;;;;;5012419;28;20291;-64
2022/08/10 09:45:29;;;;;;;2.30;1.48;;;21.90;1.00;;;;;;5009886;28;20206;-64
2022/08/10 09:48:02;;;;;;;1.85;1.58;;;21.80;1.00;;;;;;5012902;28;20467;-64
2022/08/10 09:50:37;;;;;;;6.55;1.80;;;21.90;99.90;;;;;;5016143;28;20759;-64
2022/08/10 09:53:10;;;;;;;2.75;1.73;;;21.90;99.90;;;;;;5012228;28;20221;-64
2022/08/10 09:55:46;;;;;;;3.28;1.60;;;21.90;99.90;;;;;;4993581;28;20566;-64
2022/08/10 09:58:28;;;;;;;3.47;1.30;;;22.20;1.00;;;;;;5015910;28;20201;-64
2022/08/10 10:01:06;;;;;;;3.65;1.80;;;22.10;1.00;;;;;;5004245;28;20399;-64
2022/08/10 10:03:47;;;;;;;1.52;1.20;;;22.20;1.00;;;;;;5015590;28;20562;-63
2022/08/10 10:06:19;;;;;;;2.55;1.35;;;22.20;1.00;;;;;;5016940;28;20562;-62
2022/08/10 10:09:09;;;;;;;2.17;1.40;;;22.20;1.00;;;;;;5011593;28;20195;-62
2022/08/10 10:11:47;;;;;;;6.93;1.50;;;22.30;1.00;;;;;;4994922;28;20300;-62
2022/08/10 10:14:25;;;;;;;2.67;1.42;;;22.40;1.00;;;;;;5016115;28;20218;-62
2022/08/10 10:17:03;;;;;;;3.17;1.60;;;22.50;1.00;;;;;;5002877;28;20213;-62
2022/08/10 10:19:52;;;;;;;1.85;1.40;;;22.50;99.90;;;;;;5014506;28;20220;-62
2022/08/10 10:22:45;;;;;;;1.42;1.33;;;22.70;1.00;;;;;;5012370;28;20190;-62
2022/08/10 10:25:21;;;;;;;1.60;1.50;;;22.60;99.90;;;;;;5013979;28;20199;-62
2022/08/10 10:27:57;;;;;;;4.18;1.98;;;22.60;99.90;;;;;;4991901;28;20220;-62
2022/08/10 10:30:30;;;;;;;1.98;1.20;;;22.60;99.90;;;;;;5016166;28;20197;-62
2022/08/10 10:33:09;;;;;;;2.47;1.50;;;22.60;1.00;;;;;;5010158;28;20210;-62
2022/08/10 10:35:41;;;;;;;6.80;1.70;;;22.60;1.00;;;;;;5014345;28;20212;-63
2022/08/10 10:38:11;;;;;;;3.22;1.30;;;22.60;1.00;;;;;;5018235;28;20213;-62
2022/08/10 10:40:45;;;;;;;2.13;1.65;;;22.80;1.00;;;;;;5013410;28;20487;-62
2022/08/10 10:43:31;;;;;;;2.00;1.40;;;22.90;1.00;;;;;;4994067;28;20210;-63
2022/08/10 10:46:06;;;;;;;1.88;1.30;;;22.90;1.00;;;;;;5013901;28;20506;-62
2022/08/10 10:48:42;;;;;;;1.30;1.20;;;22.90;1.00;;;;;;5001647;28;20236;-62
2022/08/10 10:51:16;;;;;;;1.77;1.30;;;22.90;1.00;;;;;;5014318;28;20576;-62
2022/08/10 10:53:49;;;;;;;1.95;1.30;;;22.80;1.00;;;;;;5007757;28;20218;-62
2022/08/10 10:56:23;;;;;;;4.63;1.83;;;23.00;1.00;;;;;;5012653;28;20203;-62
2022/08/10 10:59:03;;;;;;;1.98;1.30;;;23.00;99.90;;;;;;4993996;28;20802;-63
2022/08/10 11:01:38;;;;;;;1.65;1.30;;;23.00;99.90;;;;;;5010759;28;20198;-62
2022/08/10 11:04:18;;;;;;;1.90;1.38;;;23.20;99.90;;;;;;5015309;28;20635;-62
2022/08/10 11:06:57;;;;;;;1.80;1.13;;;23.20;99.90;;;;;;5011355;28;20334;-62
2022/08/10 11:09:29;;;;;;;4.07;1.38;;;23.10;99.90;;;;;;5013151;28;20206;-62
2022/08/10 11:12:00;;;;;;;5.55;1.48;;;23.10;99.90;;;;;;5014464;28;20213;-62
2022/08/10 11:14:33;;;;;;;2.55;1.65;;;23.30;99.90;;;;;;4992565;28;20229;-62
2022/08/10 11:17:05;;;;;;;6.53;1.77;;;23.30;99.90;;;;;;5012342;28;20860;-62
2022/08/10 11:19:42;;;;;;;5.25;1.65;;;23.30;99.90;;;;;;5000942;28;20201;-62
2022/08/10 11:22:18;;;;;;;2.78;1.48;;;23.50;99.90;;;;;;5014212;28;20186;-62
2022/08/10 11:24:53;;;;;;;5.40;1.52;;;23.50;99.90;;;;;;5007616;28;20881;-62
2022/08/10 11:27:31;;;;;;;2.25;1.48;;;23.50;1.00;;;;;;5013423;28;20206;-62
2022/08/10 11:30:03;;;;;;;5.80;1.60;;;23.40;1.00;;;;;;4993132;28;25753;-62
2022/08/10 11:32:40;;;;;;;6.25;1.58;;;23.40;1.00;;;;;;5012217;28;20190;-62
2022/08/10 11:35:17;;;;;;;1.67;1.35;;;23.50;1.00;;;;;;5013788;28;20232;-62
2022/08/10 11:37:51;;;;;;;3.00;1.42;;;23.50;1.00;;;;;;5010968;28;20419;-63
2022/08/10 11:40:24;;;;;;;3.97;1.30;;;23.60;3.90;;;;;;5016015;28;20205;-62
2022/08/10 11:43:06;;;;;;;1.40;1.13;;;23.50;1.00;;;;;;5012449;28;20335;-63
2022/08/10 11:45:35;;;;;;;4.97;1.90;;;23.50;41.90;;;;;;5002799;28;20241;-63
2022/08/10 11:48:11;;;;;;;1.90;1.30;;;23.70;1.00;;;;;;5005399;28;20210;-62
2022/08/10 11:50:45;;;;;;;3.33;1.60;;;23.70;1.00;;;;;;5009758;28;20198;-62
2022/08/10 11:53:19;;;;;;;2.05;1.55;;;23.60;1.00;;;;;;5013340;28;20198;-62
2022/08/10 11:55:51;;;;;;;1.35;1.23;;;23.60;1.00;;;;;;5001055;28;20428;-62
2022/08/10 12:01:10;;;;;;;3.10;1.90;;;23.30;1.00;;;;;;5014704;28;20251;-62
2022/08/10 12:03:38;;;;;;;1.95;1.20;;;23.40;1.00;;;;;;4988890;28;20206;-62
2022/08/10 12:06:12;;;;;;;5.40;2.03;;;23.50;1.00;;;;;;5012688;28;20202;-62
2022/08/10 12:08:42;;;;;;;3.47;1.58;;;23.40;1.00;;;;;;5009727;28;20190;-62
2022/08/10 12:11:10;;;;;;;4.18;1.42;;;23.50;1.00;;;;;;5014193;28;20198;-62
2022/08/10 12:13:43;;;;;;;1.33;1.25;;;23.60;1.00;;;;;;5011818;28;20222;-62
2022/08/10 12:16:14;;;;;;;2.40;1.13;;;23.70;1.00;;;;;;5014278;28;20202;-62
2022/08/10 12:18:45;;;;;;;2.67;1.60;;;23.10;1.00;;;;;;4988416;28;20225;-62
2022/08/10 12:21:16;;;;;;;4.18;1.52;;;23.60;1.00;;;;;;5012551;28;20209;-62
2022/08/10 12:23:48;;;;;;;2.35;1.35;;;23.50;1.00;;;;;;5009552;28;20293;-62
2022/08/10 12:26:19;;;;;;;1.67;1.52;;;23.60;1.00;;;;;;5012284;28;20245;-62
2022/08/10 12:28:53;;;;;;;1.60;1.48;;;23.80;1.00;;;;;;5008243;28;20835;-62
2022/08/10 12:31:26;;;;;;;2.17;1.50;;;23.80;1.00;;;;;;5012525;28;20209;-62
2022/08/10 12:34:05;;;;;;;1.88;1.67;;;23.90;1.00;;;;;;4991058;28;20268;-62
2022/08/10 12:36:39;;;;;;;2.97;1.65;;;24.30;1.00;;;;;;5013865;28;20197;-62
2022/08/10 12:39:14;;;;;;;2.42;1.40;;;24.20;1.00;;;;;;5014112;28;20197;-62
2022/08/10 12:41:52;;;;;;;10.05;2.20;;;24.30;1.00;;;;;;5009842;28;20248;-62
2022/08/10 12:44:27;;;;;;;2.60;1.40;;;24.30;1.00;;;;;;5012226;28;20217;-62
2022/08/10 12:46:59;;;;;;;5.65;1.92;;;24.20;1.00;;;;;;5010339;28;20723;-63
2022/08/10 12:49:31;;;;;;;3.63;1.50;;;24.20;1.00;;;;;;4992660;28;20213;-62
2022/08/10 12:52:06;;;;;;;5.63;1.42;;;24.30;1.00;;;;;;5011372;28;20240;-62
2022/08/10 12:54:36;;;;;;;1.42;1.33;;;24.30;1.00;;;;;;5003213;28;20768;-62
2022/08/10 12:57:08;;;;;;;1.55;1.45;;;24.20;1.00;;;;;;5013196;28;20202;-63
2022/08/10 12:59:37;;;;;;;5.40;1.52;;;24.20;1.00;;;;;;5011685;28;20209;-62
2022/08/10 13:02:04;;;;;;;1.65;1.50;;;24.20;1.00;;;;;;5008171;28;20256;-62
2022/08/10 13:04:34;;;;;;;5.38;1.33;;;24.10;1.00;;;;;;4991491;28;20254;-62
2022/08/10 13:07:04;;;;;;;1.67;1.38;;;24.20;1.00;;;;;;5012239;28;20198;-62
2022/08/10 13:09:33;;;;;;;3.97;1.67;;;24.30;1.00;;;;;;5004433;28;20198;-62
2022/08/10 13:12:03;;;;;;;4.30;1.58;;;24.20;1.00;;;;;;5014682;28;20202;-62
2022/08/10 13:14:35;;;;;;;1.40;1.30;;;24.30;1.00;;;;;;5016452;28;20241;-63
2022/08/10 13:17:04;;;;;;;1.40;1.30;;;24.30;1.00;;;;;;5017388;28;20213;-62